SWR3KH LKPR-LSZH
Flight info
| Callsign | SWR3KH |
|---|---|
| Flight time | 1h 2m |
| Altitude | 34000 |
| Route | BALTU DCT DONAD DCT OKG L984 KULOK Z715 ANELA N869 TEDGO/N0466F350 T724 RILAX |
| Aircraft | A359/H-SDE2E3GHIJ3J4J5LM1ORWXY/LB1D1 |
Departure
| Time | 2026-05-05 17:05 |
|---|---|
| Airport | Václav Havel Airport Prague (LKPR) |
Arrival
| Time | 2026-05-05 18:07 |
|---|---|
| Airport | Zürich Airport (LSZH) |
| Time | Latitude | Longitude | Altitude | Speed | Heading |
|---|---|---|---|---|---|
| 2026-05-05 16:24 | 50.10619 | 14.26197 | 1180 ft | 0 kts | 34° |
| 2026-05-05 16:50 | 50.10599 | 14.26175 | 1175 ft | 4 kts | 33° |
| 2026-05-05 16:51 | 50.10576 | 14.26154 | 1175 ft | 4 kts | 18° |
| 2026-05-05 16:51 | 50.10555 | 14.26152 | 1175 ft | 4 kts | 309° |
| 2026-05-05 16:51 | 50.10541 | 14.26184 | 1175 ft | 4 kts | 304° |
| 2026-05-05 16:51 | 50.10533 | 14.26201 | 1175 ft | 0 kts | 304° |
| 2026-05-05 16:52 | 50.10538 | 14.26166 | 1175 ft | 4 kts | 268° |
| 2026-05-05 16:52 | 50.10533 | 14.26126 | 1175 ft | 3 kts | 259° |
| 2026-05-05 16:52 | 50.10533 | 14.26123 | 1175 ft | 0 kts | 259° |
| 2026-05-05 16:57 | 50.10533 | 14.26120 | 1180 ft | 2 kts | 259° |
| 2026-05-05 16:58 | 50.10523 | 14.26039 | 1178 ft | 12 kts | 259° |
| 2026-05-05 16:58 | 50.10525 | 14.25944 | 1176 ft | 9 kts | 286° |
| 2026-05-05 16:58 | 50.10553 | 14.25858 | 1170 ft | 7 kts | 303° |
| 2026-05-05 16:58 | 50.10556 | 14.25852 | 1172 ft | 0 kts | 303° |
| 2026-05-05 16:59 | 50.10562 | 14.25836 | 1174 ft | 5 kts | 303° |
| 2026-05-05 16:59 | 50.10589 | 14.25771 | 1172 ft | 8 kts | 299° |
| 2026-05-05 16:59 | 50.10624 | 14.25675 | 1171 ft | 12 kts | 300° |
| 2026-05-05 16:59 | 50.10676 | 14.25534 | 1174 ft | 18 kts | 300° |
| 2026-05-05 17:00 | 50.10747 | 14.25333 | 1165 ft | 22 kts | 299° |
| 2026-05-05 17:00 | 50.10802 | 14.25165 | 1161 ft | 13 kts | 289° |
| 2026-05-05 17:00 | 50.10809 | 14.25115 | 1162 ft | 0 kts | 276° |
| 2026-05-05 17:02 | 50.10811 | 14.25098 | 1162 ft | 6 kts | 276° |
| 2026-05-05 17:02 | 50.10819 | 14.24972 | 1159 ft | 18 kts | 276° |
| 2026-05-05 17:03 | 50.10805 | 14.24732 | 1160 ft | 18 kts | 258° |
| 2026-05-05 17:03 | 50.10789 | 14.24657 | 1163 ft | 5 kts | 234° |
| 2026-05-05 17:03 | 50.10764 | 14.24648 | 1165 ft | 5 kts | 172° |
| 2026-05-05 17:03 | 50.10743 | 14.24672 | 1165 ft | 0 kts | 136° |
| 2026-05-05 17:04 | 50.10742 | 14.24673 | 1165 ft | 1 kts | 136° |
| 2026-05-05 17:04 | 50.10670 | 14.24803 | 1166 ft | 48 kts | 127° |
| 2026-05-05 17:04 | 50.10312 | 14.25551 | 1187 ft | 121 kts | 127° |
| 2026-05-05 17:04 | 50.09692 | 14.26825 | 1433 ft | 158 kts | 125° |
| 2026-05-05 17:05 | 50.09020 | 14.28139 | 2303 ft | 156 kts | 123° |
| 2026-05-05 17:05 | 50.08325 | 14.29532 | 2794 ft | 177 kts | 121° |
| 2026-05-05 17:05 | 50.07547 | 14.31215 | 3149 ft | 206 kts | 123° |
| 2026-05-05 17:05 | 50.06651 | 14.33110 | 3686 ft | 226 kts | 125° |
| 2026-05-05 17:06 | 50.05657 | 14.35170 | 4226 ft | 248 kts | 125° |
| 2026-05-05 17:06 | 50.04599 | 14.37355 | 5147 ft | 255 kts | 126° |
| 2026-05-05 17:06 | 50.03520 | 14.39576 | 6124 ft | 260 kts | 127° |
| 2026-05-05 17:06 | 50.02422 | 14.41834 | 7094 ft | 265 kts | 128° |
| 2026-05-05 17:07 | 50.01342 | 14.44202 | 8079 ft | 272 kts | 122° |
| 2026-05-05 17:07 | 50.00664 | 14.46989 | 9133 ft | 281 kts | 102° |
| 2026-05-05 17:07 | 50.00716 | 14.50023 | 10072 ft | 296 kts | 79° |
| 2026-05-05 17:07 | 50.01643 | 14.53074 | 10575 ft | 326 kts | 52° |
| 2026-05-05 17:08 | 50.03389 | 14.55470 | 11226 ft | 343 kts | 37° |
| 2026-05-05 17:08 | 50.05360 | 14.57660 | 12129 ft | 351 kts | 36° |
| 2026-05-05 17:08 | 50.07361 | 14.59894 | 13069 ft | 357 kts | 37° |
| 2026-05-05 17:08 | 50.09382 | 14.62116 | 13925 ft | 364 kts | 33° |
| 2026-05-05 17:09 | 50.11735 | 14.63769 | 14737 ft | 370 kts | 14° |
| 2026-05-05 17:09 | 50.14264 | 14.64104 | 15579 ft | 372 kts | 355° |
| 2026-05-05 17:09 | 50.16848 | 14.63631 | 16400 ft | 376 kts | 346° |
| 2026-05-05 17:09 | 50.19313 | 14.62256 | 17219 ft | 377 kts | 329° |
| 2026-05-05 17:10 | 50.21322 | 14.59679 | 18068 ft | 375 kts | 306° |
| 2026-05-05 17:10 | 50.22554 | 14.56135 | 18812 ft | 372 kts | 284° |
| 2026-05-05 17:10 | 50.22938 | 14.52161 | 19627 ft | 371 kts | 269° |
| 2026-05-05 17:10 | 50.22851 | 14.48130 | 20463 ft | 372 kts | 262° |
| 2026-05-05 17:11 | 50.22538 | 14.44096 | 21289 ft | 375 kts | 259° |
| 2026-05-05 17:11 | 50.22143 | 14.40039 | 22091 ft | 379 kts | 259° |
| 2026-05-05 17:11 | 50.21747 | 14.35951 | 22899 ft | 383 kts | 259° |
| 2026-05-05 17:11 | 50.21377 | 14.31807 | 23648 ft | 387 kts | 260° |
| 2026-05-05 17:12 | 50.21047 | 14.27711 | 24298 ft | 391 kts | 261° |
| 2026-05-05 17:12 | 50.20730 | 14.23467 | 24976 ft | 395 kts | 261° |
| 2026-05-05 17:12 | 50.20426 | 14.19192 | 25646 ft | 398 kts | 261° |
| 2026-05-05 17:12 | 50.20126 | 14.14870 | 26300 ft | 401 kts | 261° |
| 2026-05-05 17:13 | 50.19825 | 14.10522 | 26958 ft | 405 kts | 261° |
| 2026-05-05 17:13 | 50.19518 | 14.06137 | 27615 ft | 408 kts | 261° |
| 2026-05-05 17:13 | 50.19206 | 14.01720 | 28244 ft | 411 kts | 261° |
| 2026-05-05 17:13 | 50.18888 | 13.97267 | 28867 ft | 415 kts | 261° |
| 2026-05-05 17:14 | 50.18564 | 13.92772 | 29490 ft | 418 kts | 261° |
| 2026-05-05 17:14 | 50.18235 | 13.88250 | 30050 ft | 422 kts | 261° |
| 2026-05-05 17:14 | 50.17902 | 13.83673 | 30526 ft | 426 kts | 261° |
| 2026-05-05 17:14 | 50.17563 | 13.79067 | 31005 ft | 429 kts | 261° |
| 2026-05-05 17:15 | 50.17220 | 13.74424 | 31512 ft | 431 kts | 261° |
| 2026-05-05 17:15 | 50.16873 | 13.69762 | 32010 ft | 434 kts | 261° |
| 2026-05-05 17:15 | 50.16523 | 13.65071 | 32495 ft | 436 kts | 261° |
| 2026-05-05 17:15 | 50.16170 | 13.60361 | 32948 ft | 439 kts | 261° |
| 2026-05-05 17:16 | 50.15813 | 13.55626 | 33399 ft | 441 kts | 261° |
| 2026-05-05 17:16 | 50.15450 | 13.50853 | 33703 ft | 444 kts | 261° |
| 2026-05-05 17:16 | 50.15093 | 13.46139 | 33750 ft | 428 kts | 261° |
| 2026-05-05 17:16 | 50.14754 | 13.41673 | 33747 ft | 412 kts | 261° |
| 2026-05-05 17:17 | 50.14069 | 13.32823 | 33758 ft | 421 kts | 261° |
| 2026-05-05 17:17 | 50.13706 | 13.28221 | 33759 ft | 433 kts | 261° |
| 2026-05-05 17:17 | 50.13331 | 13.23490 | 33758 ft | 445 kts | 261° |
| 2026-05-05 17:18 | 50.12567 | 13.13829 | 33748 ft | 451 kts | 261° |
| 2026-05-05 17:18 | 50.11797 | 13.04130 | 33771 ft | 451 kts | 261° |
| 2026-05-05 17:19 | 50.11016 | 12.94421 | 33773 ft | 451 kts | 261° |
| 2026-05-05 17:19 | 50.10225 | 12.84719 | 33773 ft | 451 kts | 260° |
| 2026-05-05 17:20 | 50.09431 | 12.75079 | 33767 ft | 452 kts | 260° |
| 2026-05-05 17:20 | 50.08621 | 12.65358 | 33763 ft | 452 kts | 260° |
| 2026-05-05 17:21 | 50.07807 | 12.55689 | 33753 ft | 451 kts | 260° |
| 2026-05-05 17:22 | 50.06653 | 12.41135 | 33741 ft | 453 kts | 264° |
| 2026-05-05 17:22 | 50.06621 | 12.31284 | 33737 ft | 457 kts | 268° |
| 2026-05-05 17:23 | 50.06747 | 12.21368 | 33739 ft | 458 kts | 268° |
| 2026-05-05 17:23 | 50.06891 | 12.11446 | 33762 ft | 458 kts | 268° |
| 2026-05-05 17:24 | 50.07009 | 12.01581 | 33767 ft | 458 kts | 268° |
| 2026-05-05 17:24 | 50.07093 | 11.91671 | 33768 ft | 459 kts | 268° |
| 2026-05-05 17:25 | 50.07164 | 11.81657 | 33767 ft | 464 kts | 268° |
| 2026-05-05 17:25 | 50.06978 | 11.71621 | 33782 ft | 461 kts | 259° |
| 2026-05-05 17:26 | 50.05192 | 11.62130 | 33768 ft | 457 kts | 242° |
| 2026-05-05 17:26 | 50.01589 | 11.54028 | 33775 ft | 457 kts | 226° |
| 2026-05-05 17:27 | 49.97197 | 11.46983 | 33773 ft | 457 kts | 224° |
| 2026-05-05 17:27 | 49.92539 | 11.40258 | 33778 ft | 454 kts | 216° |
| 2026-05-05 17:28 | 49.87501 | 11.34396 | 33776 ft | 452 kts | 214° |
| 2026-05-05 17:28 | 49.82415 | 11.28668 | 33793 ft | 451 kts | 214° |
| 2026-05-05 17:29 | 49.77394 | 11.22875 | 33797 ft | 451 kts | 218° |
| 2026-05-05 17:29 | 49.72867 | 11.16102 | 33797 ft | 452 kts | 223° |
| 2026-05-05 17:30 | 49.68514 | 11.09151 | 33798 ft | 453 kts | 224° |
| 2026-05-05 17:30 | 49.64148 | 11.02131 | 33807 ft | 452 kts | 223° |
| 2026-05-05 17:31 | 49.59774 | 10.95143 | 33803 ft | 452 kts | 223° |
| 2026-05-05 17:31 | 49.55404 | 10.88197 | 33803 ft | 452 kts | 223° |
| 2026-05-05 17:32 | 49.51024 | 10.81264 | 33804 ft | 452 kts | 223° |
| 2026-05-05 17:32 | 49.47377 | 10.75505 | 33827 ft | 452 kts | 223° |
| 2026-05-05 17:33 | 49.42251 | 10.67442 | 33832 ft | 454 kts | 223° |
| 2026-05-05 17:33 | 49.38565 | 10.61595 | 33832 ft | 455 kts | 223° |
| 2026-05-05 17:34 | 49.34235 | 10.54571 | 33833 ft | 455 kts | 224° |
| 2026-05-05 17:34 | 49.29804 | 10.47629 | 33834 ft | 454 kts | 221° |
| 2026-05-05 17:35 | 49.25302 | 10.40820 | 33842 ft | 454 kts | 222° |
| 2026-05-05 17:35 | 49.20817 | 10.34003 | 33856 ft | 455 kts | 223° |
| 2026-05-05 17:36 | 49.16396 | 10.27152 | 33842 ft | 455 kts | 223° |
| 2026-05-05 17:36 | 49.12201 | 10.19895 | 33867 ft | 457 kts | 227° |
| 2026-05-05 17:37 | 49.08179 | 10.12326 | 33836 ft | 460 kts | 228° |
| 2026-05-05 17:37 | 49.04194 | 10.04757 | 33829 ft | 459 kts | 229° |
| 2026-05-05 17:38 | 49.00196 | 9.97189 | 33796 ft | 458 kts | 229° |
| 2026-05-05 17:38 | 48.98194 | 9.93416 | 33425 ft | 457 kts | 229° |
| 2026-05-05 17:38 | 48.96183 | 9.89637 | 32731 ft | 461 kts | 228° |
| 2026-05-05 17:38 | 48.94139 | 9.85805 | 32059 ft | 470 kts | 228° |
| 2026-05-05 17:39 | 48.92063 | 9.81921 | 31501 ft | 474 kts | 229° |
| 2026-05-05 17:39 | 48.90002 | 9.78064 | 30937 ft | 460 kts | 228° |
| 2026-05-05 17:39 | 48.88017 | 9.74347 | 30427 ft | 456 kts | 228° |
| 2026-05-05 17:39 | 48.86037 | 9.70639 | 29903 ft | 448 kts | 228° |
| 2026-05-05 17:40 | 48.84074 | 9.66978 | 29317 ft | 445 kts | 228° |
| 2026-05-05 17:40 | 48.82115 | 9.63338 | 28741 ft | 442 kts | 229° |
| 2026-05-05 17:40 | 48.80168 | 9.59728 | 28192 ft | 440 kts | 229° |
| 2026-05-05 17:40 | 48.78233 | 9.56144 | 27667 ft | 439 kts | 229° |
| 2026-05-05 17:41 | 48.76299 | 9.52565 | 27267 ft | 437 kts | 229° |
| 2026-05-05 17:41 | 48.74410 | 9.49070 | 26884 ft | 432 kts | 229° |
| 2026-05-05 17:41 | 48.72513 | 9.45565 | 26501 ft | 428 kts | 229° |
| 2026-05-05 17:41 | 48.70629 | 9.42084 | 26108 ft | 425 kts | 229° |
| 2026-05-05 17:42 | 48.68760 | 9.38637 | 25741 ft | 423 kts | 229° |
| 2026-05-05 17:42 | 48.66901 | 9.35215 | 25399 ft | 420 kts | 229° |
| 2026-05-05 17:42 | 48.65046 | 9.31806 | 25074 ft | 418 kts | 229° |
| 2026-05-05 17:42 | 48.63187 | 9.28458 | 24748 ft | 410 kts | 226° |
| 2026-05-05 17:43 | 48.61184 | 9.25452 | 24445 ft | 401 kts | 220° |
| 2026-05-05 17:43 | 48.59046 | 9.22800 | 24131 ft | 397 kts | 217° |
| 2026-05-05 17:43 | 48.56858 | 9.20252 | 23830 ft | 395 kts | 216° |
| 2026-05-05 17:43 | 48.54686 | 9.17716 | 23514 ft | 394 kts | 219° |
| 2026-05-05 17:44 | 48.52705 | 9.14923 | 23196 ft | 392 kts | 225° |
| 2026-05-05 17:44 | 48.50848 | 9.11979 | 22833 ft | 383 kts | 225° |
| 2026-05-05 17:44 | 48.49050 | 9.09085 | 22494 ft | 373 kts | 225° |
| 2026-05-05 17:44 | 48.47293 | 9.06262 | 22155 ft | 365 kts | 225° |
| 2026-05-05 17:45 | 48.45568 | 9.03496 | 21806 ft | 359 kts | 225° |
| 2026-05-05 17:45 | 48.43859 | 9.00763 | 21456 ft | 356 kts | 225° |
| 2026-05-05 17:45 | 48.42162 | 8.98055 | 21119 ft | 355 kts | 225° |
| 2026-05-05 17:45 | 48.40471 | 8.95370 | 20793 ft | 353 kts | 225° |
| 2026-05-05 17:46 | 48.38796 | 8.92718 | 20459 ft | 351 kts | 225° |
| 2026-05-05 17:46 | 48.37112 | 8.90065 | 20127 ft | 348 kts | 225° |
| 2026-05-05 17:46 | 48.35441 | 8.87445 | 19814 ft | 346 kts | 225° |
| 2026-05-05 17:46 | 48.33671 | 8.85061 | 19494 ft | 344 kts | 216° |
| 2026-05-05 17:47 | 48.31682 | 8.83090 | 19171 ft | 342 kts | 212° |
| 2026-05-05 17:47 | 48.29644 | 8.81269 | 18871 ft | 340 kts | 211° |
| 2026-05-05 17:47 | 48.27595 | 8.79489 | 18559 ft | 338 kts | 211° |
| 2026-05-05 17:47 | 48.25560 | 8.77740 | 18252 ft | 336 kts | 211° |
| 2026-05-05 17:48 | 48.23534 | 8.76012 | 17938 ft | 334 kts | 211° |
| 2026-05-05 17:48 | 48.21523 | 8.74301 | 17839 ft | 333 kts | 211° |
| 2026-05-05 17:48 | 48.19506 | 8.72589 | 17840 ft | 333 kts | 211° |
| 2026-05-05 17:48 | 48.17445 | 8.70841 | 17816 ft | 345 kts | 211° |
| 2026-05-05 17:49 | 48.15298 | 8.69023 | 17744 ft | 373 kts | 211° |
| 2026-05-05 17:49 | 48.12974 | 8.67058 | 17697 ft | 389 kts | 211° |
| 2026-05-05 17:49 | 48.10607 | 8.65063 | 17441 ft | 390 kts | 211° |
| 2026-05-05 17:49 | 48.08245 | 8.63075 | 17176 ft | 389 kts | 211° |
| 2026-05-05 17:50 | 48.05885 | 8.61092 | 16920 ft | 387 kts | 211° |
| 2026-05-05 17:50 | 48.03544 | 8.59125 | 16661 ft | 386 kts | 211° |
| 2026-05-05 17:50 | 48.01210 | 8.57165 | 16394 ft | 384 kts | 211° |
| 2026-05-05 17:50 | 47.98863 | 8.55257 | 16109 ft | 381 kts | 207° |
| 2026-05-05 17:51 | 47.96396 | 8.54008 | 15600 ft | 375 kts | 192° |
| 2026-05-05 17:51 | 47.93795 | 8.53932 | 14997 ft | 375 kts | 175° |
| 2026-05-05 17:51 | 47.91340 | 8.55063 | 14398 ft | 377 kts | 157° |
| 2026-05-05 17:51 | 47.89182 | 8.57291 | 13759 ft | 378 kts | 142° |
| 2026-05-05 17:52 | 47.87201 | 8.59835 | 13100 ft | 374 kts | 143° |
| 2026-05-05 17:52 | 47.85226 | 8.62310 | 12467 ft | 368 kts | 144° |
| 2026-05-05 17:52 | 47.83273 | 8.64723 | 11871 ft | 362 kts | 144° |
| 2026-05-05 17:52 | 47.81344 | 8.67085 | 11261 ft | 356 kts | 145° |
| 2026-05-05 17:53 | 47.79458 | 8.69385 | 11038 ft | 341 kts | 145° |
| 2026-05-05 17:53 | 47.77668 | 8.71567 | 10905 ft | 324 kts | 145° |
| 2026-05-05 17:53 | 47.75961 | 8.73641 | 10778 ft | 309 kts | 146° |
| 2026-05-05 17:53 | 47.74335 | 8.75611 | 10642 ft | 295 kts | 146° |
| 2026-05-05 17:54 | 47.72780 | 8.77490 | 10527 ft | 282 kts | 146° |
| 2026-05-05 17:54 | 47.71534 | 8.78995 | 10413 ft | 273 kts | 146° |
| 2026-05-05 17:54 | 47.70093 | 8.80731 | 10289 ft | 270 kts | 147° |
| 2026-05-05 17:54 | 47.68614 | 8.82508 | 10078 ft | 269 kts | 147° |
| 2026-05-05 17:55 | 47.67179 | 8.84229 | 9786 ft | 269 kts | 147° |
| 2026-05-05 17:55 | 47.65680 | 8.86021 | 9541 ft | 285 kts | 145° |
| 2026-05-05 17:55 | 47.64120 | 8.87892 | 9393 ft | 288 kts | 145° |
| 2026-05-05 17:55 | 47.62594 | 8.89806 | 8918 ft | 289 kts | 140° |
| 2026-05-05 17:56 | 47.61390 | 8.92218 | 8499 ft | 293 kts | 123° |
| 2026-05-05 17:56 | 47.60280 | 8.94727 | 8276 ft | 289 kts | 137° |
| 2026-05-05 17:56 | 47.58670 | 8.96373 | 8075 ft | 278 kts | 163° |
| 2026-05-05 17:56 | 47.56806 | 8.96768 | 7893 ft | 268 kts | 189° |
| 2026-05-05 17:57 | 47.55087 | 8.95875 | 7697 ft | 262 kts | 216° |
| 2026-05-05 17:57 | 47.53878 | 8.93911 | 7493 ft | 260 kts | 242° |
| 2026-05-05 17:57 | 47.53346 | 8.91371 | 7294 ft | 261 kts | 263° |
| 2026-05-05 17:57 | 47.53615 | 8.88709 | 7099 ft | 266 kts | 287° |
| 2026-05-05 17:58 | 47.54367 | 8.86205 | 6906 ft | 267 kts | 293° |
| 2026-05-05 17:58 | 47.55189 | 8.83771 | 6709 ft | 267 kts | 293° |
| 2026-05-05 17:58 | 47.56027 | 8.81318 | 6514 ft | 266 kts | 293° |
| 2026-05-05 17:58 | 47.56866 | 8.78876 | 6336 ft | 264 kts | 294° |
| 2026-05-05 17:59 | 47.57699 | 8.76456 | 6108 ft | 263 kts | 293° |
| 2026-05-05 17:59 | 47.58527 | 8.74048 | 6003 ft | 261 kts | 293° |
| 2026-05-05 17:59 | 47.59351 | 8.71653 | 5996 ft | 261 kts | 293° |
| 2026-05-05 17:59 | 47.60176 | 8.69250 | 6001 ft | 261 kts | 293° |
| 2026-05-05 18:00 | 47.61002 | 8.66851 | 6000 ft | 260 kts | 293° |
| 2026-05-05 18:00 | 47.61827 | 8.64467 | 5999 ft | 260 kts | 293° |
| 2026-05-05 18:00 | 47.62652 | 8.62081 | 5999 ft | 260 kts | 293° |
| 2026-05-05 18:00 | 47.63478 | 8.59692 | 6001 ft | 260 kts | 293° |
| 2026-05-05 18:01 | 47.64307 | 8.57297 | 6000 ft | 260 kts | 293° |
| 2026-05-05 18:01 | 47.65132 | 8.54919 | 5997 ft | 260 kts | 293° |
| 2026-05-05 18:01 | 47.65769 | 8.52466 | 5909 ft | 257 kts | 277° |
| 2026-05-05 18:01 | 47.65827 | 8.49856 | 5632 ft | 252 kts | 264° |
| 2026-05-05 18:02 | 47.65702 | 8.47336 | 5292 ft | 238 kts | 264° |
| 2026-05-05 18:02 | 47.65559 | 8.44961 | 4928 ft | 225 kts | 263° |
| 2026-05-05 18:02 | 47.65128 | 8.42812 | 4534 ft | 214 kts | 240° |
| 2026-05-05 18:02 | 47.64298 | 8.41008 | 4154 ft | 211 kts | 234° |
| 2026-05-05 18:03 | 47.63397 | 8.39279 | 4001 ft | 213 kts | 233° |
| 2026-05-05 18:03 | 47.62300 | 8.37805 | 3987 ft | 214 kts | 209° |
| 2026-05-05 18:03 | 47.60872 | 8.37472 | 3975 ft | 212 kts | 172° |
| 2026-05-05 18:03 | 47.59484 | 8.38274 | 3997 ft | 218 kts | 153° |
| 2026-05-05 18:04 | 47.58313 | 8.39731 | 3996 ft | 221 kts | 138° |
| 2026-05-05 18:04 | 47.57257 | 8.41314 | 3893 ft | 213 kts | 140° |
| 2026-05-05 18:04 | 47.56179 | 8.42739 | 3620 ft | 208 kts | 143° |
| 2026-05-05 18:04 | 47.55112 | 8.44193 | 3325 ft | 202 kts | 141° |
| 2026-05-05 18:05 | 47.54127 | 8.45550 | 3044 ft | 187 kts | 140° |
| 2026-05-05 18:05 | 47.53225 | 8.46772 | 2820 ft | 166 kts | 141° |
| 2026-05-05 18:05 | 47.52401 | 8.47898 | 2584 ft | 157 kts | 141° |
| 2026-05-05 18:05 | 47.51617 | 8.48969 | 2381 ft | 150 kts | 141° |
| 2026-05-05 18:06 | 47.50862 | 8.49990 | 2139 ft | 144 kts | 140° |
| 2026-05-05 18:06 | 47.50379 | 8.50640 | 2024 ft | 138 kts | 140° |
| 2026-05-05 18:06 | 47.49467 | 8.51904 | 1785 ft | 133 kts | 139° |
| 2026-05-05 18:06 | 47.48788 | 8.52825 | 1620 ft | 132 kts | 140° |
| 2026-05-05 18:07 | 47.48110 | 8.53747 | 1430 ft | 131 kts | 139° |
| 2026-05-05 18:07 | 47.47498 | 8.54580 | 1407 ft | 102 kts | 137° |
| 2026-05-05 18:07 | 47.47065 | 8.55171 | 1402 ft | 67 kts | 137° |
| 2026-05-05 18:07 | 47.46814 | 8.55513 | 1409 ft | 33 kts | 137° |
| 2026-05-05 18:08 | 47.46653 | 8.55656 | 1410 ft | 22 kts | 161° |
| 2026-05-05 18:08 | 47.46503 | 8.55713 | 1410 ft | 22 kts | 169° |
| 2026-05-05 18:08 | 47.46403 | 8.55748 | 1411 ft | 12 kts | 156° |
| 2026-05-05 18:08 | 47.46337 | 8.55818 | 1414 ft | 12 kts | 138° |
| 2026-05-05 18:09 | 47.46275 | 8.55903 | 1416 ft | 13 kts | 137° |
| 2026-05-05 18:09 | 47.46207 | 8.55985 | 1418 ft | 12 kts | 152° |
| 2026-05-05 18:09 | 47.46126 | 8.55995 | 1419 ft | 13 kts | 186° |
| 2026-05-05 18:09 | 47.46028 | 8.55979 | 1415 ft | 16 kts | 186° |
| 2026-05-05 18:10 | 47.45911 | 8.55939 | 1418 ft | 18 kts | 200° |
| 2026-05-05 18:10 | 47.45792 | 8.55881 | 1423 ft | 19 kts | 191° |
| 2026-05-05 18:10 | 47.45693 | 8.55863 | 1419 ft | 13 kts | 186° |
| 2026-05-05 18:10 | 47.45648 | 8.55835 | 1421 ft | 6 kts | 237° |
| 2026-05-05 18:11 | 47.45646 | 8.55750 | 1419 ft | 11 kts | 272° |
| 2026-05-05 18:11 | 47.45654 | 8.55607 | 1413 ft | 16 kts | 276° |
| 2026-05-05 18:11 | 47.45671 | 8.55427 | 1411 ft | 9 kts | 277° |
| 2026-05-05 18:11 | 47.45646 | 8.55346 | 1410 ft | 9 kts | 205° |
| 2026-05-05 18:12 | 47.45584 | 8.55367 | 1414 ft | 10 kts | 156° |
| 2026-05-05 18:12 | 47.45514 | 8.55413 | 1417 ft | 12 kts | 155° |
| 2026-05-05 18:12 | 47.45436 | 8.55467 | 1417 ft | 13 kts | 155° |
| 2026-05-05 18:12 | 47.45349 | 8.55526 | 1421 ft | 15 kts | 155° |
| 2026-05-05 18:13 | 47.45283 | 8.55587 | 1417 ft | 8 kts | 124° |
| 2026-05-05 18:13 | 47.45269 | 8.55680 | 1413 ft | 11 kts | 98° |
| 2026-05-05 18:13 | 47.45259 | 8.55805 | 1413 ft | 13 kts | 96° |
| 2026-05-05 18:13 | 47.45252 | 8.55872 | 1417 ft | 4 kts | 113° |
| 2026-05-05 18:14 | 47.45226 | 8.55894 | 1419 ft | 5 kts | 164° |
| 2026-05-05 18:14 | 47.45193 | 8.55899 | 1420 ft | 2 kts | 180° |
| 2026-05-05 18:14 | 47.45177 | 8.55898 | 1419 ft | 1 kts | 182° |
| 2026-05-05 18:14 | 47.45172 | 8.55897 | 1421 ft | 1 kts | 183° |
| 2026-05-05 18:15 | 47.45171 | 8.55897 | 1420 ft | 0 kts | 183° |
| 2026-05-05 18:15 | 47.45169 | 8.55897 | 1420 ft | 0 kts | 183° |
| 2026-05-05 18:15 | 47.45167 | 8.55897 | 1420 ft | 0 kts | 184° |